sensor_id;sensor_type;location;lat;lon;timestamp;temperature;humidity
4749;DHT22;2388;53.582;9.962;2022-07-29T00:01:15;16.00;99.90
4749;DHT22;2388;53.582;9.962;2022-07-29T00:03:41;16.00;99.90
4749;DHT22;2388;53.582;9.962;2022-07-29T00:06:06;16.00;99.90
4749;DHT22;2388;53.582;9.962;2022-07-29T00:08:32;15.90;99.90
4749;DHT22;2388;53.582;9.962;2022-07-29T00:10:57;15.90;99.90
4749;DHT22;2388;53.582;9.962;2022-07-29T00:13:22;15.90;99.90
4749;DHT22;2388;53.582;9.962;2022-07-29T00:15:48;15.90;99.90
4749;DHT22;2388;53.582;9.962;2022-07-29T00:18:13;15.90;99.90
4749;DHT22;2388;53.582;9.962;2022-07-29T00:20:39;15.80;99.90
4749;DHT22;2388;53.582;9.962;2022-07-29T00:23:04;15.80;99.90
4749;DHT22;2388;53.582;9.962;2022-07-29T00:25:30;15.70;99.90
4749;DHT22;2388;53.582;9.962;2022-07-29T00:27:55;15.80;99.90
4749;DHT22;2388;53.582;9.962;2022-07-29T00:30:21;15.80;99.90
4749;DHT22;2388;53.582;9.962;2022-07-29T00:32:46;15.80;99.90
4749;DHT22;2388;53.582;9.962;2022-07-29T00:35:12;15.80;99.90
4749;DHT22;2388;53.582;9.962;2022-07-29T00:37:56;15.80;99.90
4749;DHT22;2388;53.582;9.962;2022-07-29T00:40:22;15.80;99.90
4749;DHT22;2388;53.582;9.962;2022-07-29T00:42:49;15.80;99.90
4749;DHT22;2388;53.582;9.962;2022-07-29T00:45:16;15.80;99.90
4749;DHT22;2388;53.582;9.962;2022-07-29T00:47:42;15.80;99.90
4749;DHT22;2388;53.582;9.962;2022-07-29T00:50:10;15.70;99.90
4749;DHT22;2388;53.582;9.962;2022-07-29T00:52:38;15.70;99.90
4749;DHT22;2388;53.582;9.962;2022-07-29T00:55:05;15.80;99.90
4749;DHT22;2388;53.582;9.962;2022-07-29T00:57:31;15.80;99.90
4749;DHT22;2388;53.582;9.962;2022-07-29T00:59:57;15.80;99.90
4749;DHT22;2388;53.582;9.962;2022-07-29T01:02:23;15.80;99.90
4749;DHT22;2388;53.582;9.962;2022-07-29T01:04:48;15.70;99.90
4749;DHT22;2388;53.582;9.962;2022-07-29T01:07:14;15.70;99.90
4749;DHT22;2388;53.582;9.962;2022-07-29T01:09:41;15.70;99.90
4749;DHT22;2388;53.582;9.962;2022-07-29T01:12:07;15.70;99.90
4749;DHT22;2388;53.582;9.962;2022-07-29T01:14:34;15.60;99.90
4749;DHT22;2388;53.582;9.962;2022-07-29T01:17:12;15.70;99.90
4749;DHT22;2388;53.582;9.962;2022-07-29T01:19:45;15.60;99.90
4749;DHT22;2388;53.582;9.962;2022-07-29T01:28:08;15.50;99.90
4749;DHT22;2388;53.582;9.962;2022-07-29T01:30:39;15.50;99.90
4749;DHT22;2388;53.582;9.962;2022-07-29T01:33:10;15.50;99.90
4749;DHT22;2388;53.582;9.962;2022-07-29T01:35:39;15.50;99.90
4749;DHT22;2388;53.582;9.962;2022-07-29T01:38:11;15.50;99.90
4749;DHT22;2388;53.582;9.962;2022-07-29T01:40:51;15.50;99.90
4749;DHT22;2388;53.582;9.962;2022-07-29T01:43:23;15.50;99.90
4749;DHT22;2388;53.582;9.962;2022-07-29T01:46:04;15.50;99.90
4749;DHT22;2388;53.582;9.962;2022-07-29T01:48:43;15.50;99.90
4749;DHT22;2388;53.582;9.962;2022-07-29T01:51:16;15.50;99.90
4749;DHT22;2388;53.582;9.962;2022-07-29T01:54:06;15.40;99.90
4749;DHT22;2388;53.582;9.962;2022-07-29T01:56:35;15.50;99.90
4749;DHT22;2388;53.582;9.962;2022-07-29T01:59:04;15.50;99.90
4749;DHT22;2388;53.582;9.962;2022-07-29T02:01:32;15.50;99.90
4749;DHT22;2388;53.582;9.962;2022-07-29T02:03:59;15.50;99.90
4749;DHT22;2388;53.582;9.962;2022-07-29T02:06:27;15.50;99.90
4749;DHT22;2388;53.582;9.962;2022-07-29T02:08:56;15.50;99.90
4749;DHT22;2388;53.582;9.962;2022-07-29T02:11:23;15.60;99.90
4749;DHT22;2388;53.582;9.962;2022-07-29T02:13:49;15.50;99.90
4749;DHT22;2388;53.582;9.962;2022-07-29T02:16:19;15.50;99.90
4749;DHT22;2388;53.582;9.962;2022-07-29T02:18:50;15.50;99.90
4749;DHT22;2388;53.582;9.962;2022-07-29T02:21:23;15.50;99.90
4749;DHT22;2388;53.582;9.962;2022-07-29T02:23:50;15.50;99.90
4749;DHT22;2388;53.582;9.962;2022-07-29T02:26:20;15.50;99.90
4749;DHT22;2388;53.582;9.962;2022-07-29T02:28:48;15.50;99.90
4749;DHT22;2388;53.582;9.962;2022-07-29T02:31:14;15.50;99.90
4749;DHT22;2388;53.582;9.962;2022-07-29T02:33:42;15.40;99.90
4749;DHT22;2388;53.582;9.962;2022-07-29T02:36:08;15.40;99.90
4749;DHT22;2388;53.582;9.962;2022-07-29T02:38:35;15.30;99.90
4749;DHT22;2388;53.582;9.962;2022-07-29T02:41:33;15.40;99.90
4749;DHT22;2388;53.582;9.962;2022-07-29T02:44:21;15.40;99.90
4749;DHT22;2388;53.582;9.962;2022-07-29T02:47:07;15.40;99.90
4749;DHT22;2388;53.582;9.962;2022-07-29T02:52:17;15.40;99.90
4749;DHT22;2388;53.582;9.962;2022-07-29T02:55:01;15.40;99.90
4749;DHT22;2388;53.582;9.962;2022-07-29T02:58:05;15.40;99.90
4749;DHT22;2388;53.582;9.962;2022-07-29T03:00:37;15.50;99.90
4749;DHT22;2388;53.582;9.962;2022-07-29T03:03:05;15.40;99.90
4749;DHT22;2388;53.582;9.962;2022-07-29T03:05:32;15.40;99.90
4749;DHT22;2388;53.582;9.962;2022-07-29T03:08:02;15.40;99.90
4749;DHT22;2388;53.582;9.962;2022-07-29T03:10:29;15.40;99.90
4749;DHT22;2388;53.582;9.962;2022-07-29T03:12:55;15.40;99.90
4749;DHT22;2388;53.582;9.962;2022-07-29T03:15:22;15.40;99.90
4749;DHT22;2388;53.582;9.962;2022-07-29T03:17:48;15.40;99.90
4749;DHT22;2388;53.582;9.962;2022-07-29T03:20:14;15.40;99.90
4749;DHT22;2388;53.582;9.962;2022-07-29T03:22:41;15.40;99.90
4749;DHT22;2388;53.582;9.962;2022-07-29T03:25:15;15.40;99.90
4749;DHT22;2388;53.582;9.962;2022-07-29T03:27:41;15.30;99.90
4749;DHT22;2388;53.582;9.962;2022-07-29T03:30:09;15.30;99.90
4749;DHT22;2388;53.582;9.962;2022-07-29T03:32:35;15.30;99.90
4749;DHT22;2388;53.582;9.962;2022-07-29T03:35:00;15.30;99.90
4749;DHT22;2388;53.582;9.962;2022-07-29T03:37:26;15.30;99.90
4749;DHT22;2388;53.582;9.962;2022-07-29T03:39:53;15.40;99.90
4749;DHT22;2388;53.582;9.962;2022-07-29T03:42:21;15.30;99.90
4749;DHT22;2388;53.582;9.962;2022-07-29T03:44:48;15.30;99.90
4749;DHT22;2388;53.582;9.962;2022-07-29T03:47:14;15.40;99.90
4749;DHT22;2388;53.582;9.962;2022-07-29T03:49:42;15.40;99.90
4749;DHT22;2388;53.582;9.962;2022-07-29T03:52:09;15.40;99.90
4749;DHT22;2388;53.582;9.962;2022-07-29T03:54:35;15.40;99.90
4749;DHT22;2388;53.582;9.962;2022-07-29T03:57:02;15.40;99.90
4749;DHT22;2388;53.582;9.962;2022-07-29T03:59:30;15.30;99.90
4749;DHT22;2388;53.582;9.962;2022-07-29T04:01:58;15.20;99.90
4749;DHT22;2388;53.582;9.962;2022-07-29T04:04:24;15.30;99.90
4749;DHT22;2388;53.582;9.962;2022-07-29T04:06:50;15.30;99.90
4749;DHT22;2388;53.582;9.962;2022-07-29T04:09:15;15.30;99.90
4749;DHT22;2388;53.582;9.962;2022-07-29T04:11:42;15.40;99.90
4749;DHT22;2388;53.582;9.962;2022-07-29T04:14:07;15.30;99.90
4749;DHT22;2388;53.582;9.962;2022-07-29T04:16:33;15.20;99.90
4749;DHT22;2388;53.582;9.962;2022-07-29T04:18:58;15.20;99.90
4749;DHT22;2388;53.582;9.962;2022-07-29T04:21:24;15.30;99.90
4749;DHT22;2388;53.582;9.962;2022-07-29T04:23:50;15.40;99.90
4749;DHT22;2388;53.582;9.962;2022-07-29T04:26:19;15.40;99.90
4749;DHT22;2388;53.582;9.962;2022-07-29T04:28:45;15.30;99.90
4749;DHT22;2388;53.582;9.962;2022-07-29T04:31:12;15.30;99.90
4749;DHT22;2388;53.582;9.962;2022-07-29T04:33:38;15.40;99.90
4749;DHT22;2388;53.582;9.962;2022-07-29T04:36:03;15.40;99.90
4749;DHT22;2388;53.582;9.962;2022-07-29T04:38:29;15.40;99.90
4749;DHT22;2388;53.582;9.962;2022-07-29T04:40:55;15.50;99.90
4749;DHT22;2388;53.582;9.962;2022-07-29T04:43:20;15.50;99.90
4749;DHT22;2388;53.582;9.962;2022-07-29T04:45:45;15.50;99.90
4749;DHT22;2388;53.582;9.962;2022-07-29T04:48:11;15.50;99.90
4749;DHT22;2388;53.582;9.962;2022-07-29T04:50:40;15.60;99.90
4749;DHT22;2388;53.582;9.962;2022-07-29T04:53:07;15.60;99.90
4749;DHT22;2388;53.582;9.962;2022-07-29T04:55:33;15.60;99.90
4749;DHT22;2388;53.582;9.962;2022-07-29T04:57:58;15.60;99.90
4749;DHT22;2388;53.582;9.962;2022-07-29T05:00:24;15.60;99.90
4749;DHT22;2388;53.582;9.962;2022-07-29T05:02:49;15.60;99.90
4749;DHT22;2388;53.582;9.962;2022-07-29T05:05:15;15.70;99.90
4749;DHT22;2388;53.582;9.962;2022-07-29T05:07:41;15.60;99.90
4749;DHT22;2388;53.582;9.962;2022-07-29T05:10:07;15.60;99.90
4749;DHT22;2388;53.582;9.962;2022-07-29T05:12:33;15.70;99.90
4749;DHT22;2388;53.582;9.962;2022-07-29T05:14:58;15.70;99.90
4749;DHT22;2388;53.582;9.962;2022-07-29T05:17:24;15.70;99.90
4749;DHT22;2388;53.582;9.962;2022-07-29T05:19:49;15.70;99.90
4749;DHT22;2388;53.582;9.962;2022-07-29T05:22:19;15.80;99.90
4749;DHT22;2388;53.582;9.962;2022-07-29T05:24:45;15.80;99.90
4749;DHT22;2388;53.582;9.962;2022-07-29T05:27:11;15.80;99.90
4749;DHT22;2388;53.582;9.962;2022-07-29T05:29:36;15.80;99.90
4749;DHT22;2388;53.582;9.962;2022-07-29T05:32:03;15.90;99.90
4749;DHT22;2388;53.582;9.962;2022-07-29T05:34:28;15.90;99.90
4749;DHT22;2388;53.582;9.962;2022-07-29T05:36:54;16.00;99.90
4749;DHT22;2388;53.582;9.962;2022-07-29T05:39:20;15.90;99.90
4749;DHT22;2388;53.582;9.962;2022-07-29T05:41:45;16.00;99.90
4749;DHT22;2388;53.582;9.962;2022-07-29T05:44:11;16.00;99.90
4749;DHT22;2388;53.582;9.962;2022-07-29T05:46:38;16.00;99.90
4749;DHT22;2388;53.582;9.962;2022-07-29T05:49:04;16.00;99.90
4749;DHT22;2388;53.582;9.962;2022-07-29T05:51:29;16.00;99.90
4749;DHT22;2388;53.582;9.962;2022-07-29T05:53:55;14.90;99.90
4749;DHT22;2388;53.582;9.962;2022-07-29T05:56:21;16.10;99.90
4749;DHT22;2388;53.582;9.962;2022-07-29T05:58:46;16.10;99.90
4749;DHT22;2388;53.582;9.962;2022-07-29T06:01:11;16.20;99.90
4749;DHT22;2388;53.582;9.962;2022-07-29T06:03:37;16.20;99.90
4749;DHT22;2388;53.582;9.962;2022-07-29T06:06:03;15.50;99.90
4749;DHT22;2388;53.582;9.962;2022-07-29T06:08:29;16.30;99.90
4749;DHT22;2388;53.582;9.962;2022-07-29T06:10:54;16.40;99.90
4749;DHT22;2388;53.582;9.962;2022-07-29T06:13:20;16.50;99.90
4749;DHT22;2388;53.582;9.962;2022-07-29T06:15:45;16.50;99.90
4749;DHT22;2388;53.582;9.962;2022-07-29T06:18:12;16.50;99.90
4749;DHT22;2388;53.582;9.962;2022-07-29T06:20:38;16.60;99.90
4749;DHT22;2388;53.582;9.962;2022-07-29T06:23:04;16.60;99.90
4749;DHT22;2388;53.582;9.962;2022-07-29T06:25:29;16.60;99.90
4749;DHT22;2388;53.582;9.962;2022-07-29T06:27:55;16.70;99.90
4749;DHT22;2388;53.582;9.962;2022-07-29T06:30:21;16.70;99.90
4749;DHT22;2388;53.582;9.962;2022-07-29T06:32:46;16.80;99.90
4749;DHT22;2388;53.582;9.962;2022-07-29T06:35:12;16.80;99.90
4749;DHT22;2388;53.582;9.962;2022-07-29T06:37:37;16.80;99.90
4749;DHT22;2388;53.582;9.962;2022-07-29T06:40:04;16.90;99.90
4749;DHT22;2388;53.582;9.962;2022-07-29T06:42:48;16.90;99.90
4749;DHT22;2388;53.582;9.962;2022-07-29T06:45:14;16.90;99.90
4749;DHT22;2388;53.582;9.962;2022-07-29T06:47:39;17.00;99.90
4749;DHT22;2388;53.582;9.962;2022-07-29T06:50:05;17.00;99.90
4749;DHT22;2388;53.582;9.962;2022-07-29T06:52:31;17.00;99.90
4749;DHT22;2388;53.582;9.962;2022-07-29T06:54:56;17.10;99.90
4749;DHT22;2388;53.582;9.962;2022-07-29T06:57:22;17.10;99.90
4749;DHT22;2388;53.582;9.962;2022-07-29T06:59:48;17.20;99.90
4749;DHT22;2388;53.582;9.962;2022-07-29T07:02:14;17.30;99.90
4749;DHT22;2388;53.582;9.962;2022-07-29T07:04:39;17.30;99.90
4749;DHT22;2388;53.582;9.962;2022-07-29T07:07:05;17.40;99.90
4749;DHT22;2388;53.582;9.962;2022-07-29T07:09:30;17.30;99.90
4749;DHT22;2388;53.582;9.962;2022-07-29T07:11:56;19.30;99.90
4749;DHT22;2388;53.582;9.962;2022-07-29T07:14:21;17.40;99.90
4749;DHT22;2388;53.582;9.962;2022-07-29T07:16:47;17.50;99.90
4749;DHT22;2388;53.582;9.962;2022-07-29T07:19:12;17.50;99.90
4749;DHT22;2388;53.582;9.962;2022-07-29T07:21:38;17.60;99.90
4749;DHT22;2388;53.582;9.962;2022-07-29T07:24:03;17.60;99.90
4749;DHT22;2388;53.582;9.962;2022-07-29T07:26:29;17.60;99.90
4749;DHT22;2388;53.582;9.962;2022-07-29T07:28:55;17.60;99.90
4749;DHT22;2388;53.582;9.962;2022-07-29T07:31:20;17.70;99.90
4749;DHT22;2388;53.582;9.962;2022-07-29T07:33:46;17.70;99.90
4749;DHT22;2388;53.582;9.962;2022-07-29T07:36:11;17.70;99.90
4749;DHT22;2388;53.582;9.962;2022-07-29T07:38:37;17.80;99.90
4749;DHT22;2388;53.582;9.962;2022-07-29T07:41:03;17.80;99.90
4749;DHT22;2388;53.582;9.962;2022-07-29T07:43:29;17.80;99.90
4749;DHT22;2388;53.582;9.962;2022-07-29T07:45:54;17.80;99.90
4749;DHT22;2388;53.582;9.962;2022-07-29T07:48:20;17.80;99.90
4749;DHT22;2388;53.582;9.962;2022-07-29T07:50:45;17.90;99.90
4749;DHT22;2388;53.582;9.962;2022-07-29T07:53:11;17.90;99.90
4749;DHT22;2388;53.582;9.962;2022-07-29T07:55:41;18.00;99.90
4749;DHT22;2388;53.582;9.962;2022-07-29T07:58:07;18.00;99.90
4749;DHT22;2388;53.582;9.962;2022-07-29T08:00:33;18.00;99.90
4749;DHT22;2388;53.582;9.962;2022-07-29T08:02:58;18.00;99.90
4749;DHT22;2388;53.582;9.962;2022-07-29T08:05:24;18.10;99.90
4749;DHT22;2388;53.582;9.962;2022-07-29T08:07:49;18.10;99.90
4749;DHT22;2388;53.582;9.962;2022-07-29T08:10:16;18.20;99.90
4749;DHT22;2388;53.582;9.962;2022-07-29T08:13:03;18.20;99.90
4749;DHT22;2388;53.582;9.962;2022-07-29T08:15:28;18.30;99.90
4749;DHT22;2388;53.582;9.962;2022-07-29T08:17:54;18.30;99.90
4749;DHT22;2388;53.582;9.962;2022-07-29T08:20:19;18.40;99.90
4749;DHT22;2388;53.582;9.962;2022-07-29T08:22:45;18.40;99.90
4749;DHT22;2388;53.582;9.962;2022-07-29T08:25:10;18.50;99.90
4749;DHT22;2388;53.582;9.962;2022-07-29T08:27:35;18.60;99.90
4749;DHT22;2388;53.582;9.962;2022-07-29T08:30:01;18.60;99.90
4749;DHT22;2388;53.582;9.962;2022-07-29T08:32:26;18.60;99.90
4749;DHT22;2388;53.582;9.962;2022-07-29T08:34:53;18.70;99.90
4749;DHT22;2388;53.582;9.962;2022-07-29T08:37:19;18.80;99.90
4749;DHT22;2388;53.582;9.962;2022-07-29T08:39:44;18.80;99.90
4749;DHT22;2388;53.582;9.962;2022-07-29T08:42:10;18.90;99.90
4749;DHT22;2388;53.582;9.962;2022-07-29T08:44:36;18.90;99.90
4749;DHT22;2388;53.582;9.962;2022-07-29T08:47:02;18.90;99.90
4749;DHT22;2388;53.582;9.962;2022-07-29T08:49:28;19.00;99.90
4749;DHT22;2388;53.582;9.962;2022-07-29T08:51:54;19.10;99.90
4749;DHT22;2388;53.582;9.962;2022-07-29T08:54:23;19.00;99.90
4749;DHT22;2388;53.582;9.962;2022-07-29T08:56:50;19.10;99.90
4749;DHT22;2388;53.582;9.962;2022-07-29T08:59:16;19.20;99.90
4749;DHT22;2388;53.582;9.962;2022-07-29T09:01:45;19.30;99.90
4749;DHT22;2388;53.582;9.962;2022-07-29T09:04:12;19.30;99.90
4749;DHT22;2388;53.582;9.962;2022-07-29T09:06:42;19.40;99.90
4749;DHT22;2388;53.582;9.962;2022-07-29T09:09:09;19.40;99.90
4749;DHT22;2388;53.582;9.962;2022-07-29T09:11:35;19.50;99.50
4749;DHT22;2388;53.582;9.962;2022-07-29T09:14:01;19.50;99.60
4749;DHT22;2388;53.582;9.962;2022-07-29T09:16:50;19.60;99.90
4749;DHT22;2388;53.582;9.962;2022-07-29T09:19:36;19.70;99.90
4749;DHT22;2388;53.582;9.962;2022-07-29T09:22:04;19.70;99.60
4749;DHT22;2388;53.582;9.962;2022-07-29T09:24:45;19.80;99.40
4749;DHT22;2388;53.582;9.962;2022-07-29T09:27:21;19.90;99.10
4749;DHT22;2388;53.582;9.962;2022-07-29T09:30:07;19.90;99.30
4749;DHT22;2388;53.582;9.962;2022-07-29T09:32:58;19.90;97.90
4749;DHT22;2388;53.582;9.962;2022-07-29T09:35:27;19.90;98.50
4749;DHT22;2388;53.582;9.962;2022-07-29T09:37:53;20.00;97.60
4749;DHT22;2388;53.582;9.962;2022-07-29T09:40:23;20.00;96.80
4749;DHT22;2388;53.582;9.962;2022-07-29T09:42:49;20.00;97.20
4749;DHT22;2388;53.582;9.962;2022-07-29T09:45:33;20.00;97.30
4749;DHT22;2388;53.582;9.962;2022-07-29T09:48:12;20.10;97.60
4749;DHT22;2388;53.582;9.962;2022-07-29T09:50:39;20.10;97.20
4749;DHT22;2388;53.582;9.962;2022-07-29T09:53:05;20.20;96.30
4749;DHT22;2388;53.582;9.962;2022-07-29T09:55:31;20.20;96.70
4749;DHT22;2388;53.582;9.962;2022-07-29T09:58:16;20.20;96.60
4749;DHT22;2388;53.582;9.962;2022-07-29T10:00:42;20.30;96.60
4749;DHT22;2388;53.582;9.962;2022-07-29T10:03:08;20.30;96.60
4749;DHT22;2388;53.582;9.962;2022-07-29T10:05:34;20.30;96.60
4749;DHT22;2388;53.582;9.962;2022-07-29T10:07:59;20.40;96.30
4749;DHT22;2388;53.582;9.962;2022-07-29T10:10:30;20.40;96.30
4749;DHT22;2388;53.582;9.962;2022-07-29T10:12:58;20.40;96.50
4749;DHT22;2388;53.582;9.962;2022-07-29T10:15:26;20.30;96.80
4749;DHT22;2388;53.582;9.962;2022-07-29T10:17:53;20.40;96.40
4749;DHT22;2388;53.582;9.962;2022-07-29T10:20:20;20.40;96.80
4749;DHT22;2388;53.582;9.962;2022-07-29T10:22:47;20.40;96.50
4749;DHT22;2388;53.582;9.962;2022-07-29T10:25:14;20.50;95.90
4749;DHT22;2388;53.582;9.962;2022-07-29T10:27:40;20.60;95.70
4749;DHT22;2388;53.582;9.962;2022-07-29T10:30:06;20.60;95.40
4749;DHT22;2388;53.582;9.962;2022-07-29T10:32:39;20.60;95.10
4749;DHT22;2388;53.582;9.962;2022-07-29T10:35:33;20.60;95.30
4749;DHT22;2388;53.582;9.962;2022-07-29T10:40:51;20.60;95.30
4749;DHT22;2388;53.582;9.962;2022-07-29T10:43:43;20.60;95.80
4749;DHT22;2388;53.582;9.962;2022-07-29T10:46:10;20.50;96.20
4749;DHT22;2388;53.582;9.962;2022-07-29T10:49:05;20.70;95.60
4749;DHT22;2388;53.582;9.962;2022-07-29T10:57:14;20.70;95.60
4749;DHT22;2388;53.582;9.962;2022-07-29T10:59:43;20.70;95.50
4749;DHT22;2388;53.582;9.962;2022-07-29T11:07:23;20.60;95.10
4749;DHT22;2388;53.582;9.962;2022-07-29T11:15:12;20.80;95.40
4749;DHT22;2388;53.582;9.962;2022-07-29T11:20:44;20.80;94.70
4749;DHT22;2388;53.582;9.962;2022-07-29T11:23:22;20.90;94.90
4749;DHT22;2388;53.582;9.962;2022-07-29T11:26:20;20.90;95.20
4749;DHT22;2388;53.582;9.962;2022-07-29T11:31:41;21.00;94.90
4749;DHT22;2388;53.582;9.962;2022-07-29T11:34:23;21.10;94.50
4749;DHT22;2388;53.582;9.962;2022-07-29T11:44:56;21.30;93.20
4749;DHT22;2388;53.582;9.962;2022-07-29T11:47:23;21.30;93.70
4749;DHT22;2388;53.582;9.962;2022-07-29T11:49:50;21.20;92.90
4749;DHT22;2388;53.582;9.962;2022-07-29T11:52:17;21.30;92.60
4749;DHT22;2388;53.582;9.962;2022-07-29T11:54:43;21.20;93.40
4749;DHT22;2388;53.582;9.962;2022-07-29T11:57:09;21.10;93.60
4749;DHT22;2388;53.582;9.962;2022-07-29T11:59:39;21.20;93.20
4749;DHT22;2388;53.582;9.962;2022-07-29T12:02:05;21.40;93.10
4749;DHT22;2388;53.582;9.962;2022-07-29T12:04:30;21.30;93.10
4749;DHT22;2388;53.582;9.962;2022-07-29T12:06:56;21.40;93.40
4749;DHT22;2388;53.582;9.962;2022-07-29T12:09:23;21.30;93.20
4749;DHT22;2388;53.582;9.962;2022-07-29T12:11:58;21.50;92.70
4749;DHT22;2388;53.582;9.962;2022-07-29T12:14:31;21.70;93.00
4749;DHT22;2388;53.582;9.962;2022-07-29T12:16:57;21.80;92.90
4749;DHT22;2388;53.582;9.962;2022-07-29T12:19:23;21.80;92.90
4749;DHT22;2388;53.582;9.962;2022-07-29T12:21:54;21.90;92.50
4749;DHT22;2388;53.582;9.962;2022-07-29T12:24:21;22.10;91.90
4749;DHT22;2388;53.582;9.962;2022-07-29T12:26:50;22.10;92.40
4749;DHT22;2388;53.582;9.962;2022-07-29T12:29:17;22.20;92.40
4749;DHT22;2388;53.582;9.962;2022-07-29T12:31:43;22.20;92.30
4749;DHT22;2388;53.582;9.962;2022-07-29T12:34:12;22.30;92.00
4749;DHT22;2388;53.582;9.962;2022-07-29T12:36:39;22.20;91.70
4749;DHT22;2388;53.582;9.962;2022-07-29T12:39:05;22.60;90.60
4749;DHT22;2388;53.582;9.962;2022-07-29T12:41:31;23.00;90.50
4749;DHT22;2388;53.582;9.962;2022-07-29T12:43:57;23.10;89.60
4749;DHT22;2388;53.582;9.962;2022-07-29T12:46:23;22.90;90.50
4749;DHT22;2388;53.582;9.962;2022-07-29T12:48:51;22.80;90.50
4749;DHT22;2388;53.582;9.962;2022-07-29T12:51:31;22.70;90.60
4749;DHT22;2388;53.582;9.962;2022-07-29T12:54:11;22.60;90.80
4749;DHT22;2388;53.582;9.962;2022-07-29T12:56:39;22.50;90.70
4749;DHT22;2388;53.582;9.962;2022-07-29T12:59:15;22.60;90.70
4749;DHT22;2388;53.582;9.962;2022-07-29T13:01:41;22.70;90.70
4749;DHT22;2388;53.582;9.962;2022-07-29T13:04:07;22.70;90.70
4749;DHT22;2388;53.582;9.962;2022-07-29T13:06:43;22.80;90.00
4749;DHT22;2388;53.582;9.962;2022-07-29T13:09:17;23.00;90.10
4749;DHT22;2388;53.582;9.962;2022-07-29T13:11:48;22.90;90.20
4749;DHT22;2388;53.582;9.962;2022-07-29T13:14:41;22.80;90.20
4749;DHT22;2388;53.582;9.962;2022-07-29T13:19:35;22.70;90.40
4749;DHT22;2388;53.582;9.962;2022-07-29T13:22:00;22.80;90.30
4749;DHT22;2388;53.582;9.962;2022-07-29T13:24:26;22.90;90.30
4749;DHT22;2388;53.582;9.962;2022-07-29T13:26:51;23.40;87.30
4749;DHT22;2388;53.582;9.962;2022-07-29T13:29:17;23.40;88.60
4749;DHT22;2388;53.582;9.962;2022-07-29T13:31:43;23.20;89.70
4749;DHT22;2388;53.582;9.962;2022-07-29T13:34:08;23.80;90.10
4749;DHT22;2388;53.582;9.962;2022-07-29T13:36:34;23.90;87.80
4749;DHT22;2388;53.582;9.962;2022-07-29T13:38:59;23.80;89.70
4749;DHT22;2388;53.582;9.962;2022-07-29T13:41:27;24.30;88.60
4749;DHT22;2388;53.582;9.962;2022-07-29T13:43:53;24.30;90.10
4749;DHT22;2388;53.582;9.962;2022-07-29T13:46:18;24.60;88.20
4749;DHT22;2388;53.582;9.962;2022-07-29T13:48:44;24.60;90.20
4749;DHT22;2388;53.582;9.962;2022-07-29T13:51:09;24.40;88.70
4749;DHT22;2388;53.582;9.962;2022-07-29T13:53:35;23.90;90.40
4749;DHT22;2388;53.582;9.962;2022-07-29T13:56:00;23.90;91.70
4749;DHT22;2388;53.582;9.962;2022-07-29T13:58:26;24.30;91.10
4749;DHT22;2388;53.582;9.962;2022-07-29T14:00:51;24.30;91.00
4749;DHT22;2388;53.582;9.962;2022-07-29T14:03:17;24.20;91.80
4749;DHT22;2388;53.582;9.962;2022-07-29T14:05:42;24.30;92.00
4749;DHT22;2388;53.582;9.962;2022-07-29T14:08:08;24.30;92.20
4749;DHT22;2388;53.582;9.962;2022-07-29T14:10:33;24.20;92.90
4749;DHT22;2388;53.582;9.962;2022-07-29T14:12:59;24.30;92.90
4749;DHT22;2388;53.582;9.962;2022-07-29T14:15:24;23.90;93.00
4749;DHT22;2388;53.582;9.962;2022-07-29T14:17:50;23.90;92.70
4749;DHT22;2388;53.582;9.962;2022-07-29T14:20:16;23.70;94.10
4749;DHT22;2388;53.582;9.962;2022-07-29T14:22:41;23.70;92.60
4749;DHT22;2388;53.582;9.962;2022-07-29T14:25:08;23.70;92.80
4749;DHT22;2388;53.582;9.962;2022-07-29T14:27:33;23.60;94.00
4749;DHT22;2388;53.582;9.962;2022-07-29T14:29:59;23.50;94.10
4749;DHT22;2388;53.582;9.962;2022-07-29T14:32:24;23.50;93.60
4749;DHT22;2388;53.582;9.962;2022-07-29T14:34:50;23.50;93.50
4749;DHT22;2388;53.582;9.962;2022-07-29T14:37:15;23.40;93.30
4749;DHT22;2388;53.582;9.962;2022-07-29T14:39:41;23.20;94.60
4749;DHT22;2388;53.582;9.962;2022-07-29T14:42:07;23.20;93.60
4749;DHT22;2388;53.582;9.962;2022-07-29T14:44:33;23.20;93.90
4749;DHT22;2388;53.582;9.962;2022-07-29T14:46:59;23.20;93.40
4749;DHT22;2388;53.582;9.962;2022-07-29T14:49:25;23.20;93.40
4749;DHT22;2388;53.582;9.962;2022-07-29T14:51:51;23.20;93.90
4749;DHT22;2388;53.582;9.962;2022-07-29T14:54:17;23.20;93.90
4749;DHT22;2388;53.582;9.962;2022-07-29T14:56:42;23.10;93.70
4749;DHT22;2388;53.582;9.962;2022-07-29T14:59:08;23.20;93.60
4749;DHT22;2388;53.582;9.962;2022-07-29T15:01:34;23.30;93.50
4749;DHT22;2388;53.582;9.962;2022-07-29T15:03:59;23.20;94.40
4749;DHT22;2388;53.582;9.962;2022-07-29T15:06:25;23.30;93.70
4749;DHT22;2388;53.582;9.962;2022-07-29T15:08:50;23.30;93.10
4749;DHT22;2388;53.582;9.962;2022-07-29T15:11:16;23.30;93.20
4749;DHT22;2388;53.582;9.962;2022-07-29T15:13:41;23.30;94.10
4749;DHT22;2388;53.582;9.962;2022-07-29T15:16:07;23.20;94.00
4749;DHT22;2388;53.582;9.962;2022-07-29T15:18:33;23.20;93.50
4749;DHT22;2388;53.582;9.962;2022-07-29T15:20:59;23.20;93.80
4749;DHT22;2388;53.582;9.962;2022-07-29T15:23:25;23.20;93.50
4749;DHT22;2388;53.582;9.962;2022-07-29T15:25:51;23.20;93.70
4749;DHT22;2388;53.582;9.962;2022-07-29T15:28:16;23.20;93.60
4749;DHT22;2388;53.582;9.962;2022-07-29T15:30:42;23.20;93.30
4749;DHT22;2388;53.582;9.962;2022-07-29T15:33:08;23.10;93.40
4749;DHT22;2388;53.582;9.962;2022-07-29T15:35:35;23.00;93.40
4749;DHT22;2388;53.582;9.962;2022-07-29T15:38:01;23.00;93.50
4749;DHT22;2388;53.582;9.962;2022-07-29T15:40:27;23.00;93.30
4749;DHT22;2388;53.582;9.962;2022-07-29T15:42:52;23.00;93.20
4749;DHT22;2388;53.582;9.962;2022-07-29T15:45:18;23.00;93.60
4749;DHT22;2388;53.582;9.962;2022-07-29T15:47:43;23.00;93.40
4749;DHT22;2388;53.582;9.962;2022-07-29T15:50:09;22.90;93.60
4749;DHT22;2388;53.582;9.962;2022-07-29T15:52:40;23.00;93.60
4749;DHT22;2388;53.582;9.962;2022-07-29T15:55:05;23.00;94.10
4749;DHT22;2388;53.582;9.962;2022-07-29T15:57:31;22.90;95.40
4749;DHT22;2388;53.582;9.962;2022-07-29T15:59:56;22.80;95.80
4749;DHT22;2388;53.582;9.962;2022-07-29T16:02:22;22.90;94.60
4749;DHT22;2388;53.582;9.962;2022-07-29T16:04:47;22.90;94.20
4749;DHT22;2388;53.582;9.962;2022-07-29T16:07:14;22.90;94.50
4749;DHT22;2388;53.582;9.962;2022-07-29T16:09:40;23.00;94.20
4749;DHT22;2388;53.582;9.962;2022-07-29T16:12:06;23.00;94.30
4749;DHT22;2388;53.582;9.962;2022-07-29T16:14:31;23.00;94.60
4749;DHT22;2388;53.582;9.962;2022-07-29T16:16:57;22.90;94.70
4749;DHT22;2388;53.582;9.962;2022-07-29T16:19:22;23.00;94.60
4749;DHT22;2388;53.582;9.962;2022-07-29T16:21:48;23.00;94.30
4749;DHT22;2388;53.582;9.962;2022-07-29T16:24:13;23.00;94.00
4749;DHT22;2388;53.582;9.962;2022-07-29T16:26:39;22.90;94.40
4749;DHT22;2388;53.582;9.962;2022-07-29T16:29:04;22.90;94.30
4749;DHT22;2388;53.582;9.962;2022-07-29T16:31:30;23.00;94.30
4749;DHT22;2388;53.582;9.962;2022-07-29T16:33:55;22.90;94.70
4749;DHT22;2388;53.582;9.962;2022-07-29T16:36:21;22.90;94.90
4749;DHT22;2388;53.582;9.962;2022-07-29T16:38:47;22.90;94.50
4749;DHT22;2388;53.582;9.962;2022-07-29T16:41:13;22.90;94.60
4749;DHT22;2388;53.582;9.962;2022-07-29T16:43:38;22.90;94.70
4749;DHT22;2388;53.582;9.962;2022-07-29T16:46:07;22.90;94.30
4749;DHT22;2388;53.582;9.962;2022-07-29T16:48:33;22.90;94.40
4749;DHT22;2388;53.582;9.962;2022-07-29T16:50:58;22.90;94.50